Time;durP1;ratioP1;P1;durP2;ratioP2;P2;SDS_P1;SDS_P2;PMS_P1;PMS_P2;Temp;Humidity;BMP_temperature;BMP_pressure;BME280_temperature;BME280_humidity;BME280_pressure;Samples;Min_cycle;Max_cycle;Signal;HPM_P1;HPM_P2
2023/03/17 00:00:36;;;;;;;4.80;4.40;;;6.10;99.90;;;;;;4894245;29;20209;-78
2023/03/17 00:03:05;;;;;;;5.10;4.60;;;6.20;99.90;;;;;;4894586;29;20206;-78
2023/03/17 00:05:34;;;;;;;5.00;4.60;;;6.10;99.90;;;;;;4892047;29;20213;-77
2023/03/17 00:08:07;;;;;;;5.43;4.85;;;6.10;99.90;;;;;;4894446;29;20620;-78
2023/03/17 00:10:35;;;;;;;5.03;4.53;;;6.10;99.90;;;;;;4892693;29;20663;-77
2023/03/17 00:13:03;;;;;;;10.40;5.10;;;6.10;99.90;;;;;;4894188;29;20206;-78
2023/03/17 00:15:30;;;;;;;4.70;4.30;;;6.10;99.90;;;;;;4892065;29;20327;-77
2023/03/17 00:17:57;;;;;;;5.15;4.70;;;6.00;99.90;;;;;;4895461;29;20250;-78
2023/03/17 00:20:27;;;;;;;5.18;4.75;;;5.90;99.90;;;;;;4892409;29;20230;-77
2023/03/17 00:22:56;;;;;;;4.70;4.30;;;5.80;99.90;;;;;;4895324;29;20722;-78
2023/03/17 00:25:26;;;;;;;4.85;4.45;;;5.80;99.90;;;;;;4892180;29;20202;-77
2023/03/17 00:27:55;;;;;;;5.30;4.90;;;5.80;99.90;;;;;;4890946;29;20206;-77
2023/03/17 00:30:24;;;;;;;5.13;4.63;;;5.80;99.90;;;;;;4888507;29;20199;-78
2023/03/17 00:32:54;;;;;;;5.10;4.55;;;5.90;99.90;;;;;;4890273;29;20214;-78
2023/03/17 00:35:23;;;;;;;5.40;5.00;;;5.80;99.90;;;;;;4889349;29;20222;-77
2023/03/17 00:37:52;;;;;;;4.90;4.50;;;5.80;99.90;;;;;;4892775;29;20234;-77
2023/03/17 00:40:22;;;;;;;5.75;4.55;;;5.80;99.90;;;;;;4891504;29;20201;-77
2023/03/17 00:42:50;;;;;;;4.82;4.43;;;5.80;99.90;;;;;;4892601;29;20567;-77
2023/03/17 00:45:18;;;;;;;5.35;4.85;;;5.80;99.90;;;;;;4892203;29;20262;-77
2023/03/17 00:47:47;;;;;;;4.78;4.38;;;5.80;99.90;;;;;;4890472;29;20265;-77
2023/03/17 00:50:20;;;;;;;5.35;4.85;;;5.80;99.90;;;;;;4889995;29;20236;-77
2023/03/17 00:52:49;;;;;;;5.88;4.78;;;5.80;99.90;;;;;;4890333;29;20293;-77
2023/03/17 00:55:16;;;;;;;7.68;5.00;;;5.80;99.90;;;;;;4885755;29;20233;-77
2023/03/17 00:57:44;;;;;;;4.75;4.35;;;5.80;99.90;;;;;;4892082;29;20214;-77
2023/03/17 01:00:21;;;;;;;6.00;5.40;;;5.80;99.90;;;;;;4891727;29;20230;-77
2023/03/17 01:02:50;;;;;;;5.05;4.63;;;5.80;99.90;;;;;;4892238;29;20284;-77
2023/03/17 01:05:18;;;;;;;5.63;4.47;;;5.80;99.90;;;;;;4894268;29;20209;-77
2023/03/17 01:07:51;;;;;;;4.90;4.50;;;5.90;99.90;;;;;;4892181;29;20289;-77
2023/03/17 01:10:22;;;;;;;5.57;4.10;;;5.90;99.90;;;;;;4893359;29;20267;-77
2023/03/17 01:12:50;;;;;;;5.10;4.70;;;5.90;99.90;;;;;;4891479;29;20206;-77
2023/03/17 01:15:18;;;;;;;6.15;4.57;;;5.90;99.90;;;;;;4892457;29;20227;-76
2023/03/17 01:17:45;;;;;;;4.65;4.25;;;6.00;99.90;;;;;;4890279;29;20229;-77
2023/03/17 01:20:17;;;;;;;5.65;5.05;;;6.00;99.90;;;;;;4890997;29;21648;-77
2023/03/17 01:22:44;;;;;;;5.18;4.68;;;6.00;99.90;;;;;;4887236;29;20222;-77
2023/03/17 01:25:12;;;;;;;4.85;4.22;;;6.10;99.90;;;;;;4889686;29;20206;-77
2023/03/17 01:27:39;;;;;;;5.32;4.78;;;6.10;99.90;;;;;;4892647;29;20689;-77
2023/03/17 01:30:09;;;;;;;5.20;4.70;;;6.10;99.90;;;;;;4893209;29;20228;-77
2023/03/17 01:32:36;;;;;;;5.10;4.60;;;6.20;99.90;;;;;;4891269;29;20202;-77
2023/03/17 01:35:03;;;;;;;4.35;3.95;;;6.20;99.90;;;;;;4893650;29;20327;-76
2023/03/17 01:37:32;;;;;;;4.93;4.53;;;6.20;99.90;;;;;;4882961;29;20680;-77
2023/03/17 01:39:59;;;;;;;5.10;4.60;;;6.20;99.90;;;;;;4890246;29;20237;-77
2023/03/17 01:42:26;;;;;;;5.45;4.90;;;6.20;99.90;;;;;;4897603;29;20274;-76
2023/03/17 01:44:59;;;;;;;4.85;4.35;;;6.20;99.90;;;;;;4893021;29;20666;-77
2023/03/17 01:47:29;;;;;;;5.25;4.32;;;6.30;99.90;;;;;;4894654;29;20229;-77
2023/03/17 01:49:57;;;;;;;5.05;4.55;;;6.30;99.90;;;;;;4885642;29;20226;-77
2023/03/17 01:52:25;;;;;;;4.93;4.53;;;6.40;99.90;;;;;;4893416;29;20207;-77
2023/03/17 01:54:57;;;;;;;4.70;4.25;;;6.40;99.90;;;;;;4894082;29;20664;-77
2023/03/17 01:57:29;;;;;;;4.80;4.32;;;6.40;99.90;;;;;;4894463;29;20790;-77
2023/03/17 02:00:01;;;;;;;4.43;4.00;;;6.40;99.90;;;;;;4896133;29;21960;-77
2023/03/17 02:02:31;;;;;;;4.88;4.47;;;6.40;99.90;;;;;;4895249;29;20198;-77
2023/03/17 02:05:00;;;;;;;4.82;4.43;;;6.40;99.90;;;;;;4897557;29;20194;-77
2023/03/17 02:07:28;;;;;;;4.80;4.30;;;6.40;99.90;;;;;;4895940;29;20202;-77
2023/03/17 02:09:57;;;;;;;4.65;4.25;;;6.40;99.90;;;;;;4894355;29;20318;-77
2023/03/17 02:12:26;;;;;;;4.75;4.20;;;6.50;99.90;;;;;;4896262;29;20203;-77
2023/03/17 02:14:53;;;;;;;5.07;4.63;;;6.50;99.90;;;;;;4895013;29;20813;-77
2023/03/17 02:17:22;;;;;;;4.55;4.15;;;6.40;99.90;;;;;;4888358;29;20234;-77
2023/03/17 02:19:50;;;;;;;4.28;3.97;;;6.40;99.90;;;;;;4893454;29;20568;-76
2023/03/17 02:22:20;;;;;;;5.32;4.80;;;6.40;99.90;;;;;;4894408;29;20210;-77
2023/03/17 02:24:50;;;;;;;5.30;4.90;;;6.40;99.90;;;;;;4893953;29;20241;-77
2023/03/17 02:27:21;;;;;;;4.25;3.90;;;6.50;99.90;;;;;;4883981;29;20203;-77
2023/03/17 02:29:49;;;;;;;4.78;4.38;;;6.40;99.90;;;;;;4888178;29;20226;-77
2023/03/17 02:32:18;;;;;;;5.22;4.70;;;6.40;99.90;;;;;;4889351;29;21091;-77
2023/03/17 02:34:47;;;;;;;5.38;4.88;;;6.40;99.90;;;;;;4896987;29;20210;-77
2023/03/17 02:37:14;;;;;;;6.13;5.45;;;6.30;99.90;;;;;;4893306;29;20325;-77
2023/03/17 02:39:43;;;;;;;5.95;5.45;;;6.30;99.90;;;;;;4893131;29;20233;-77
2023/03/17 02:42:11;;;;;;;6.05;5.10;;;6.10;99.90;;;;;;4895072;29;20204;-77
2023/03/17 02:44:39;;;;;;;6.00;5.50;;;6.10;99.90;;;;;;4895970;29;20214;-77
2023/03/17 02:47:07;;;;;;;7.55;5.70;;;6.00;99.90;;;;;;4893968;29;20214;-77
2023/03/17 02:49:36;;;;;;;6.60;6.00;;;6.00;99.90;;;;;;4889364;29;20671;-77
2023/03/17 02:52:03;;;;;;;6.90;6.20;;;5.90;99.90;;;;;;4888322;29;20194;-77
2023/03/17 02:54:30;;;;;;;7.30;6.60;;;5.90;99.90;;;;;;4889413;29;20676;-76
2023/03/17 02:57:00;;;;;;;7.07;6.47;;;5.80;99.90;;;;;;4889977;29;20234;-77
2023/03/17 02:59:27;;;;;;;7.20;6.50;;;5.80;99.90;;;;;;4889268;29;20270;-77
2023/03/17 03:01:54;;;;;;;7.60;6.50;;;5.80;99.90;;;;;;4887732;29;20194;-77
2023/03/17 03:04:22;;;;;;;7.57;6.88;;;5.80;99.90;;;;;;4888027;29;20667;-77
2023/03/17 03:06:49;;;;;;;7.78;7.07;;;5.80;99.90;;;;;;4887524;29;20567;-77
2023/03/17 03:09:17;;;;;;;6.95;6.25;;;5.80;99.90;;;;;;4887056;29;20264;-77
2023/03/17 03:11:45;;;;;;;7.13;6.43;;;5.80;99.90;;;;;;4889200;29;20199;-76
2023/03/17 03:14:14;;;;;;;8.23;7.53;;;5.70;99.90;;;;;;4887851;29;20640;-77
2023/03/17 03:16:42;;;;;;;8.32;7.45;;;5.70;99.90;;;;;;4890447;29;20222;-77
2023/03/17 03:19:09;;;;;;;8.00;7.22;;;5.70;99.90;;;;;;4894140;29;20642;-77
2023/03/17 03:21:36;;;;;;;7.63;6.88;;;5.70;99.90;;;;;;4889929;29;20723;-77
2023/03/17 03:24:04;;;;;;;7.40;6.80;;;5.70;99.90;;;;;;4888103;29;20566;-77
2023/03/17 03:26:31;;;;;;;7.07;6.38;;;5.70;99.90;;;;;;4885151;29;21884;-77
2023/03/17 03:28:58;;;;;;;7.75;6.95;;;5.70;99.90;;;;;;4887192;29;20591;-77
2023/03/17 03:31:27;;;;;;;7.65;6.45;;;5.70;99.90;;;;;;4891744;29;20206;-77
2023/03/17 03:33:54;;;;;;;7.40;6.50;;;5.70;99.90;;;;;;4889065;29;20202;-77
2023/03/17 03:36:22;;;;;;;8.80;7.93;;;5.70;99.90;;;;;;4889088;29;20229;-77
2023/03/17 03:38:49;;;;;;;8.13;7.35;;;5.60;99.90;;;;;;4886825;29;20219;-77
2023/03/17 03:41:17;;;;;;;7.07;6.40;;;5.60;99.90;;;;;;4886764;29;20206;-77
2023/03/17 03:43:44;;;;;;;8.15;7.45;;;5.60;99.90;;;;;;4888874;29;20250;-76
2023/03/17 03:46:11;;;;;;;7.20;6.50;;;5.60;99.90;;;;;;4887331;29;20210;-76
2023/03/17 03:48:39;;;;;;;7.25;6.65;;;5.50;99.90;;;;;;4887868;29;20226;-77
2023/03/17 03:51:06;;;;;;;6.90;6.30;;;5.50;99.90;;;;;;4891251;29;20301;-77
2023/03/17 03:53:33;;;;;;;7.82;6.45;;;5.50;99.90;;;;;;4889329;29;20214;-77
2023/03/17 03:56:01;;;;;;;7.10;6.43;;;5.50;99.90;;;;;;4893446;29;20246;-76
2023/03/17 03:58:28;;;;;;;8.38;7.57;;;5.50;99.90;;;;;;4884077;29;20229;-76
2023/03/17 04:00:55;;;;;;;8.25;7.45;;;5.40;99.90;;;;;;4893234;29;20202;-76
2023/03/17 04:03:22;;;;;;;7.60;7.00;;;5.40;99.90;;;;;;4889349;29;20662;-76
2023/03/17 04:05:51;;;;;;;6.65;6.07;;;5.40;99.90;;;;;;4896256;29;20210;-76
2023/03/17 04:08:18;;;;;;;8.95;7.22;;;5.30;99.90;;;;;;4893884;29;20226;-76
2023/03/17 04:10:46;;;;;;;7.47;6.88;;;5.30;99.90;;;;;;4894451;29;20274;-76
2023/03/17 04:13:14;;;;;;;7.20;6.60;;;5.20;99.90;;;;;;4893658;29;20197;-76
2023/03/17 04:15:41;;;;;;;7.00;6.32;;;5.20;99.90;;;;;;4895427;29;20206;-76
2023/03/17 04:18:08;;;;;;;7.22;6.63;;;5.10;99.90;;;;;;4895150;29;20230;-75
2023/03/17 04:20:35;;;;;;;8.30;7.20;;;5.00;99.90;;;;;;4892378;29;20206;-76
2023/03/17 04:23:04;;;;;;;8.02;7.22;;;5.00;99.90;;;;;;4888604;29;20209;-76
2023/03/17 04:25:31;;;;;;;6.70;6.10;;;5.00;99.90;;;;;;4889798;29;20202;-75
2023/03/17 04:27:58;;;;;;;7.00;6.30;;;4.90;99.90;;;;;;4888075;29;20199;-75
2023/03/17 04:30:25;;;;;;;7.20;6.50;;;4.90;99.90;;;;;;4897742;29;20278;-76
2023/03/17 04:32:52;;;;;;;8.23;7.43;;;4.80;99.90;;;;;;4893673;29;20202;-76
2023/03/17 04:35:21;;;;;;;7.30;6.70;;;4.80;99.90;;;;;;4895410;29;20199;-76
2023/03/17 04:37:48;;;;;;;7.57;6.88;;;4.80;99.90;;;;;;4888459;29;20226;-76
2023/03/17 04:40:17;;;;;;;7.88;7.18;;;4.80;99.90;;;;;;4889788;29;20205;-75
2023/03/17 04:42:44;;;;;;;8.98;7.75;;;4.70;99.90;;;;;;4886710;29;20194;-75
2023/03/17 04:45:13;;;;;;;7.95;7.22;;;4.70;99.90;;;;;;4895911;29;20207;-76
2023/03/17 04:47:41;;;;;;;7.70;7.00;;;4.70;99.90;;;;;;4894547;29;20207;-75
2023/03/17 04:50:09;;;;;;;7.07;6.47;;;4.60;99.90;;;;;;4891101;29;20285;-76
2023/03/17 04:52:37;;;;;;;7.50;6.80;;;4.60;99.90;;;;;;4893458;29;20203;-76
2023/03/17 04:55:07;;;;;;;7.70;6.90;;;4.60;99.90;;;;;;4891294;29;20205;-76
2023/03/17 04:57:35;;;;;;;7.55;6.85;;;4.60;99.90;;;;;;4890942;29;20226;-76
2023/03/17 05:00:03;;;;;;;8.40;7.38;;;4.60;99.90;;;;;;4892669;29;20313;-76
2023/03/17 05:02:30;;;;;;;7.40;6.80;;;4.50;99.90;;;;;;4893521;29;20237;-76
2023/03/17 05:04:57;;;;;;;8.45;6.80;;;4.50;99.90;;;;;;4890386;29;20292;-76
2023/03/17 05:07:24;;;;;;;7.18;6.55;;;4.50;99.90;;;;;;4894119;29;20198;-76
2023/03/17 05:09:51;;;;;;;7.65;6.85;;;4.60;99.90;;;;;;4893910;29;20222;-76
2023/03/17 05:12:19;;;;;;;7.45;6.55;;;4.50;99.90;;;;;;4894559;29;20198;-76
2023/03/17 05:14:47;;;;;;;7.53;6.82;;;4.50;99.90;;;;;;4888815;29;20680;-76
2023/03/17 05:17:15;;;;;;;8.10;7.30;;;4.50;99.90;;;;;;4892600;29;20597;-76
2023/03/17 05:19:42;;;;;;;6.90;6.30;;;4.50;99.90;;;;;;4893448;29;20246;-76
2023/03/17 05:22:09;;;;;;;7.47;6.82;;;4.50;99.90;;;;;;4892958;29;20206;-77
2023/03/17 05:24:36;;;;;;;8.63;7.28;;;4.50;99.90;;;;;;4887221;29;20207;-76
2023/03/17 05:27:03;;;;;;;6.50;5.90;;;4.60;99.90;;;;;;4890315;29;20206;-76
2023/03/17 05:29:30;;;;;;;8.05;6.40;;;4.60;99.90;;;;;;4893222;29;20618;-76
2023/03/17 05:31:58;;;;;;;7.13;6.30;;;4.60;99.90;;;;;;4894122;29;20207;-76
2023/03/17 05:34:25;;;;;;;7.05;6.45;;;4.60;99.90;;;;;;4891303;29;20222;-76
2023/03/17 05:36:53;;;;;;;7.55;6.85;;;4.60;99.90;;;;;;4890175;29;20352;-76
2023/03/17 05:39:20;;;;;;;7.47;6.68;;;4.60;99.90;;;;;;4882583;29;20260;-78
2023/03/17 05:41:47;;;;;;;8.35;7.28;;;4.60;99.90;;;;;;4892723;29;20194;-75
2023/03/17 05:44:15;;;;;;;6.88;6.28;;;4.60;99.90;;;;;;4890537;29;20202;-73
2023/03/17 05:46:42;;;;;;;7.40;6.70;;;4.70;99.90;;;;;;4889116;29;20210;-75
2023/03/17 05:49:11;;;;;;;7.20;6.50;;;4.70;99.90;;;;;;4887907;29;20301;-76
2023/03/17 05:51:38;;;;;;;9.05;6.30;;;4.70;99.90;;;;;;4892884;29;20285;-73
2023/03/17 05:54:06;;;;;;;6.90;6.30;;;4.70;99.90;;;;;;4890768;29;20206;-75
2023/03/17 05:56:33;;;;;;;8.75;6.93;;;4.80;99.90;;;;;;4893237;29;20226;-75
2023/03/17 05:59:00;;;;;;;7.55;6.75;;;4.70;99.90;;;;;;4888338;29;20222;-76
2023/03/17 06:01:27;;;;;;;6.85;6.20;;;4.70;99.90;;;;;;4890603;29;20786;-74
2023/03/17 06:03:54;;;;;;;6.40;5.80;;;4.80;99.90;;;;;;4891961;29;20206;-76
2023/03/17 06:06:24;;;;;;;9.32;6.28;;;4.80;99.90;;;;;;4887509;29;20210;-76
2023/03/17 06:08:51;;;;;;;7.38;6.50;;;4.80;99.90;;;;;;4880937;29;20321;-78
2023/03/17 06:11:20;;;;;;;8.57;6.72;;;4.90;99.90;;;;;;4883449;29;20226;-82
2023/03/17 06:13:47;;;;;;;6.75;6.20;;;4.90;99.90;;;;;;4891234;29;20218;-82
2023/03/17 06:16:15;;;;;;;6.60;6.00;;;5.00;99.90;;;;;;4891502;29;20298;-81
2023/03/17 06:18:42;;;;;;;6.75;6.15;;;5.00;99.90;;;;;;4885628;29;20233;-82
2023/03/17 06:21:09;;;;;;;5.85;5.35;;;5.10;99.90;;;;;;4893115;29;20209;-82
2023/03/17 06:23:38;;;;;;;6.18;5.57;;;5.20;99.90;;;;;;4892666;29;20322;-82
2023/03/17 06:26:06;;;;;;;6.32;5.65;;;5.30;99.90;;;;;;4895067;29;20297;-73
2023/03/17 06:28:33;;;;;;;6.60;6.00;;;5.40;99.90;;;;;;4895869;29;20228;-73
2023/03/17 06:31:00;;;;;;;6.45;5.85;;;5.40;99.90;;;;;;4898737;29;20556;-73
2023/03/17 06:33:27;;;;;;;6.72;6.13;;;5.50;99.90;;;;;;4890898;29;20293;-76
2023/03/17 06:35:55;;;;;;;6.90;6.20;;;5.60;99.90;;;;;;4880434;29;20664;-77
2023/03/17 06:38:22;;;;;;;6.55;5.80;;;5.60;99.90;;;;;;4892001;29;20313;-77
2023/03/17 06:40:50;;;;;;;6.80;5.90;;;5.50;99.90;;;;;;4897904;29;20202;-77
2023/03/17 06:43:18;;;;;;;7.32;6.63;;;5.50;99.90;;;;;;4893549;29;20207;-78
2023/03/17 06:45:45;;;;;;;7.22;6.40;;;5.50;99.90;;;;;;4899338;29;20213;-78
2023/03/17 06:48:12;;;;;;;7.03;6.32;;;5.50;99.90;;;;;;4897738;29;20618;-78
2023/03/17 06:50:39;;;;;;;8.00;7.10;;;5.50;99.90;;;;;;4895788;29;20234;-81
2023/03/17 06:53:07;;;;;;;7.13;6.43;;;5.60;99.90;;;;;;4892786;29;20293;-74
2023/03/17 06:55:34;;;;;;;6.97;6.40;;;5.60;99.90;;;;;;4896083;29;20251;-75
2023/03/17 06:58:02;;;;;;;7.70;6.20;;;5.70;99.90;;;;;;4883108;29;20463;-75
2023/03/17 07:00:30;;;;;;;7.47;6.72;;;5.90;99.90;;;;;;4885654;29;20751;-75
2023/03/17 07:02:57;;;;;;;7.05;6.45;;;6.10;99.90;;;;;;4890196;29;20304;-74
2023/03/17 07:05:24;;;;;;;7.00;6.30;;;6.30;99.90;;;;;;4890444;29;20646;-74
2023/03/17 07:07:51;;;;;;;6.88;5.82;;;6.40;99.90;;;;;;4894823;29;20226;-75
2023/03/17 07:10:19;;;;;;;6.03;5.43;;;6.50;99.90;;;;;;4892463;29;20269;-74
2023/03/17 07:12:46;;;;;;;6.97;6.25;;;6.60;99.90;;;;;;4884210;29;20353;-75
2023/03/17 07:15:16;;;;;;;6.35;5.75;;;6.70;99.90;;;;;;4895690;29;20202;-75
2023/03/17 07:17:43;;;;;;;5.15;4.75;;;6.80;99.90;;;;;;4892685;29;20787;-74
2023/03/17 07:20:12;;;;;;;5.47;5.00;;;6.90;99.90;;;;;;4895414;29;20555;-74
2023/03/17 07:22:40;;;;;;;8.77;6.00;;;7.00;99.90;;;;;;4895831;29;20204;-72
2023/03/17 07:25:08;;;;;;;8.60;6.25;;;7.20;99.90;;;;;;4895671;29;20656;-71
2023/03/17 07:27:35;;;;;;;6.50;5.90;;;7.40;99.90;;;;;;4892826;29;20218;-74
2023/03/17 07:30:03;;;;;;;5.65;5.15;;;7.60;99.90;;;;;;4891373;29;20261;-74
2023/03/17 07:32:34;;;;;;;6.35;5.75;;;7.70;99.90;;;;;;4892827;29;20296;-75
2023/03/17 07:35:01;;;;;;;6.75;5.13;;;7.90;99.90;;;;;;4888005;29;20229;-74
2023/03/17 07:37:28;;;;;;;5.90;5.40;;;8.00;99.90;;;;;;4891808;29;20764;-74
2023/03/17 07:39:55;;;;;;;5.68;4.95;;;8.20;99.90;;;;;;4892469;29;20210;-74
2023/03/17 07:42:22;;;;;;;6.75;5.90;;;8.20;99.90;;;;;;4887154;29;20300;-74
2023/03/17 07:44:50;;;;;;;5.22;4.72;;;8.40;99.90;;;;;;4892763;29;20689;-74
2023/03/17 07:47:17;;;;;;;6.00;5.43;;;8.50;99.90;;;;;;4882356;29;20301;-74
2023/03/17 07:49:45;;;;;;;5.68;5.18;;;8.60;99.90;;;;;;4896498;29;20282;-74
2023/03/17 07:52:13;;;;;;;5.53;4.78;;;8.60;99.90;;;;;;4890086;29;20209;-74
2023/03/17 07:54:40;;;;;;;6.00;5.45;;;8.70;99.90;;;;;;4895731;29;20681;-74
2023/03/17 07:57:07;;;;;;;5.07;4.55;;;8.90;99.90;;;;;;4885978;29;20281;-75
2023/03/17 07:59:35;;;;;;;5.18;4.68;;;9.00;99.90;;;;;;4895134;29;20237;-75
2023/03/17 08:02:02;;;;;;;4.90;4.50;;;9.20;99.90;;;;;;4891705;29;20278;-75
2023/03/17 08:04:29;;;;;;;5.35;4.85;;;9.00;99.90;;;;;;4894814;29;20199;-73
2023/03/17 08:06:58;;;;;;;5.28;4.82;;;9.00;99.90;;;;;;4890836;29;20556;-74
2023/03/17 08:09:25;;;;;;;5.70;5.13;;;9.10;99.90;;;;;;4887825;29;20225;-73
2023/03/17 08:11:52;;;;;;;5.10;4.65;;;9.20;99.90;;;;;;4890071;29;20203;-74
2023/03/17 08:14:20;;;;;;;6.22;4.80;;;9.40;99.90;;;;;;4887971;29;20233;-74
2023/03/17 08:16:47;;;;;;;5.20;4.70;;;9.80;99.90;;;;;;4895358;29;20198;-75
2023/03/17 08:19:14;;;;;;;5.20;4.70;;;10.10;99.90;;;;;;4889853;29;20271;-75
2023/03/17 08:21:41;;;;;;;4.90;4.40;;;10.30;99.90;;;;;;4893198;29;20702;-74
2023/03/17 08:24:09;;;;;;;4.55;4.15;;;10.60;99.90;;;;;;4891314;29;20212;-75
2023/03/17 08:26:37;;;;;;;4.80;4.40;;;10.90;99.90;;;;;;4891674;29;20206;-74
2023/03/17 08:29:04;;;;;;;6.75;5.40;;;11.00;99.90;;;;;;4894520;29;20278;-74
2023/03/17 08:31:32;;;;;;;5.20;4.60;;;11.10;99.90;;;;;;4895169;29;20198;-74
2023/03/17 08:34:01;;;;;;;5.35;4.95;;;11.10;99.90;;;;;;4887782;29;20259;-74
2023/03/17 08:36:29;;;;;;;5.50;5.00;;;11.40;99.90;;;;;;4893536;29;20208;-74
2023/03/17 08:38:56;;;;;;;5.53;4.90;;;11.60;99.90;;;;;;4893628;29;20230;-74
2023/03/17 08:41:26;;;;;;;5.60;4.20;;;11.80;99.90;;;;;;4889542;29;20668;-75
2023/03/17 08:43:53;;;;;;;6.43;4.90;;;11.90;99.90;;;;;;4890956;29;20458;-74
2023/03/17 08:46:23;;;;;;;4.80;4.30;;;12.00;99.90;;;;;;4894393;29;20988;-74
2023/03/17 08:48:52;;;;;;;5.40;4.90;;;12.10;99.90;;;;;;4890645;29;20526;-74
2023/03/17 08:51:21;;;;;;;5.17;4.77;;;12.50;99.90;;;;;;4893167;29;20551;-74
2023/03/17 08:53:49;;;;;;;6.10;5.50;;;12.40;99.90;;;;;;4891199;29;20463;-74
2023/03/17 08:56:16;;;;;;;5.63;4.83;;;12.40;99.90;;;;;;4893077;29;20462;-74
2023/03/17 08:58:45;;;;;;;6.13;4.83;;;12.70;99.90;;;;;;4894925;29;20501;-74
2023/03/17 09:01:13;;;;;;;4.50;4.10;;;12.90;99.90;;;;;;4895011;29;20529;-74
2023/03/17 09:03:40;;;;;;;5.07;4.60;;;13.10;99.90;;;;;;4891310;29;20838;-74
2023/03/17 09:06:10;;;;;;;5.23;4.47;;;13.50;99.90;;;;;;4889135;29;20470;-74
2023/03/17 09:08:38;;;;;;;5.07;4.63;;;14.00;99.90;;;;;;4886238;29;20560;-74
2023/03/17 09:11:06;;;;;;;4.43;4.03;;;14.60;99.90;;;;;;4893140;29;20855;-74
2023/03/17 09:13:34;;;;;;;5.07;4.57;;;15.10;99.90;;;;;;4888656;29;20550;-74
2023/03/17 09:16:03;;;;;;;4.67;4.27;;;15.60;99.90;;;;;;4889266;29;20468;-75
2023/03/17 09:18:31;;;;;;;5.10;4.70;;;16.20;99.90;;;;;;4892031;29;20590;-75
2023/03/17 09:20:59;;;;;;;5.10;4.60;;;16.60;98.10;;;;;;4894320;29;20601;-75
2023/03/17 09:23:26;;;;;;;4.87;4.50;;;16.90;97.50;;;;;;4894594;29;20458;-75
2023/03/17 09:25:52;;;;;;;4.53;4.13;;;17.20;96.70;;;;;;4898483;29;20466;-76
2023/03/17 09:28:20;;;;;;;4.63;4.33;;;17.40;96.30;;;;;;4889551;29;20490;-75
2023/03/17 09:30:47;;;;;;;4.63;4.23;;;17.80;96.00;;;;;;4891582;29;20465;-75
2023/03/17 09:33:16;;;;;;;4.07;3.77;;;18.20;94.50;;;;;;4893406;29;20471;-75
2023/03/17 09:35:44;;;;;;;4.40;4.00;;;18.40;93.70;;;;;;4891272;29;20518;-75
2023/03/17 09:38:11;;;;;;;4.70;4.20;;;18.70;92.80;;;;;;4878694;29;20501;-75
2023/03/17 09:40:47;;;;;;;4.63;4.23;;;18.60;92.10;;;;;;4885422;29;20549;-75
2023/03/17 09:43:26;;;;;;;4.40;4.00;;;18.70;90.80;;;;;;4892378;29;20463;-75
2023/03/17 09:45:53;;;;;;;5.20;4.33;;;18.80;90.30;;;;;;4892621;29;20466;-75
2023/03/17 09:48:42;;;;;;;3.90;3.60;;;19.00;88.10;;;;;;4892426;29;20479;-73
2023/03/17 09:51:11;;;;;;;3.43;3.10;;;19.20;87.80;;;;;;4890758;29;20656;-73
2023/03/17 09:53:45;;;;;;;4.00;3.60;;;18.90;85.70;;;;;;4895296;29;20459;-73
2023/03/17 09:56:14;;;;;;;3.90;3.40;;;18.80;86.00;;;;;;4892316;29;20950;-74
2023/03/17 09:58:47;;;;;;;4.30;3.90;;;18.80;85.90;;;;;;4885615;29;20550;-73
2023/03/17 10:01:14;;;;;;;3.90;3.20;;;18.80;85.30;;;;;;4887243;29;20851;-74
2023/03/17 10:03:43;;;;;;;3.07;2.77;;;18.80;84.60;;;;;;4895011;29;20950;-74
2023/03/17 10:06:21;;;;;;;3.00;2.80;;;19.00;84.50;;;;;;4902057;29;20485;-74
2023/03/17 10:08:53;;;;;;;2.23;2.13;;;19.50;83.10;;;;;;4896798;29;20580;-74
2023/03/17 10:11:30;;;;;;;2.80;2.60;;;20.10;78.40;;;;;;4893715;29;20467;-74
2023/03/17 10:14:02;;;;;;;3.17;2.77;;;20.50;77.60;;;;;;4896582;29;20470;-74
2023/03/17 10:16:36;;;;;;;2.63;2.10;;;20.60;76.60;;;;;;4893779;29;20472;-75
2023/03/17 10:19:14;;;;;;;2.90;2.50;;;20.90;71.80;;;;;;4892001;29;20505;-74
2023/03/17 10:21:49;;;;;;;3.30;3.00;;;21.10;71.80;;;;;;4897273;29;20984;-74
2023/03/17 10:24:16;;;;;;;2.60;2.40;;;21.10;73.70;;;;;;4898065;29;20509;-74
2023/03/17 10:26:48;;;;;;;2.87;2.60;;;21.00;72.40;;;;;;4896104;29;20482;-73
2023/03/17 10:29:20;;;;;;;3.00;2.70;;;20.00;70.90;;;;;;4893062;29;20482;-75
2023/03/17 10:31:47;;;;;;;3.37;3.00;;;19.90;72.40;;;;;;4896341;29;20461;-74
2023/03/17 10:34:18;;;;;;;2.60;2.40;;;19.90;73.00;;;;;;4890943;29;20458;-74
2023/03/17 10:36:49;;;;;;;4.03;3.03;;;20.10;73.90;;;;;;4894439;29;20469;-74
2023/03/17 10:39:19;;;;;;;3.10;2.90;;;20.20;73.90;;;;;;4890624;29;20497;-74
2023/03/17 10:41:55;;;;;;;2.67;2.47;;;20.40;74.30;;;;;;4899687;29;20472;-74
2023/03/17 10:44:34;;;;;;;2.53;2.33;;;20.20;72.00;;;;;;4899696;29;20472;-73
2023/03/17 10:47:01;;;;;;;2.50;2.30;;;20.10;73.10;;;;;;4890492;29;20544;-73
2023/03/17 10:49:36;;;;;;;3.40;2.57;;;19.60;71.30;;;;;;4888680;29;20862;-74
2023/03/17 10:52:07;;;;;;;3.00;2.50;;;19.40;73.60;;;;;;4888696;29;20466;-74
2023/03/17 10:54:36;;;;;;;4.27;2.50;;;19.30;71.40;;;;;;4897832;29;20543;-74
2023/03/17 10:57:06;;;;;;;2.47;2.27;;;19.20;73.50;;;;;;4896412;29;20533;-74
2023/03/17 10:59:41;;;;;;;2.67;2.47;;;19.40;74.10;;;;;;4892333;29;20505;-74
2023/03/17 11:02:20;;;;;;;2.40;2.20;;;19.30;71.10;;;;;;4892204;29;20533;-74
2023/03/17 11:04:50;;;;;;;2.60;2.40;;;19.20;71.80;;;;;;4883601;29;20492;-74
2023/03/17 11:07:19;;;;;;;2.70;2.50;;;19.40;70.90;;;;;;4887725;29;20463;-73
2023/03/17 11:09:49;;;;;;;3.17;2.83;;;19.60;71.90;;;;;;4894907;29;20465;-75
2023/03/17 11:12:25;;;;;;;2.67;2.47;;;20.10;71.10;;;;;;4892462;29;20518;-74
2023/03/17 11:14:58;;;;;;;2.60;2.20;;;20.60;71.30;;;;;;4889748;29;20461;-75
2023/03/17 11:17:38;;;;;;;2.20;2.00;;;20.80;69.00;;;;;;4893175;29;20583;-73
2023/03/17 11:20:29;;;;;;;2.03;1.93;;;20.60;69.40;;;;;;4889245;29;20505;-74
2023/03/17 11:23:02;;;;;;;3.00;2.33;;;20.70;69.00;;;;;;4875052;29;20472;-76
2023/03/17 11:25:32;;;;;;;5.13;2.50;;;20.90;68.80;;;;;;4889639;29;20544;-75
2023/03/17 11:28:14;;;;;;;5.00;2.60;;;20.90;68.10;;;;;;4894549;29;20533;-75
2023/03/17 11:30:47;;;;;;;2.80;2.50;;;20.80;67.40;;;;;;4896611;29;20450;-76
2023/03/17 11:33:28;;;;;;;3.33;2.50;;;20.80;68.40;;;;;;4896441;29;20462;-75
2023/03/17 11:36:05;;;;;;;2.37;2.17;;;20.70;68.10;;;;;;4896072;29;20486;-76
2023/03/17 11:38:38;;;;;;;4.10;2.10;;;20.50;68.70;;;;;;4897761;29;20986;-75
2023/03/17 11:41:26;;;;;;;2.07;1.90;;;20.40;68.30;;;;;;4897602;29;20514;-76
2023/03/17 11:44:17;;;;;;;1.90;1.70;;;20.50;68.50;;;;;;4888760;29;20471;-75
2023/03/17 11:46:49;;;;;;;2.60;2.10;;;20.50;65.90;;;;;;4896722;29;20483;-75
2023/03/17 11:49:21;;;;;;;3.23;2.33;;;20.20;68.70;;;;;;4896566;29;20489;-74
2023/03/17 11:52:00;;;;;;;2.47;2.03;;;20.20;69.00;;;;;;4897294;29;20453;-74
2023/03/17 11:54:41;;;;;;;2.30;2.10;;;20.40;68.40;;;;;;4896431;29;20876;-75
2023/03/17 11:57:12;;;;;;;2.00;1.80;;;20.70;68.70;;;;;;4902603;29;20487;-75
2023/03/17 11:59:46;;;;;;;2.30;2.10;;;21.00;67.20;;;;;;4893272;29;22502;-73
2023/03/17 12:02:22;;;;;;;3.40;1.90;;;21.20;65.90;;;;;;4892155;29;20494;-73
2023/03/17 12:04:54;;;;;;;2.20;2.00;;;21.50;65.90;;;;;;4893470;29;20469;-73
2023/03/17 12:07:25;;;;;;;2.23;2.03;;;21.70;67.00;;;;;;4886490;29;20960;-75
2023/03/17 12:10:03;;;;;;;2.70;1.97;;;22.10;66.00;;;;;;4891457;29;20464;-72
2023/03/17 12:12:34;;;;;;;4.40;1.80;;;22.30;64.10;;;;;;4890138;29;20454;-73
2023/03/17 12:15:04;;;;;;;2.10;1.97;;;22.20;63.20;;;;;;4893732;29;20458;-74
2023/03/17 12:17:35;;;;;;;3.47;1.90;;;22.00;63.50;;;;;;4892225;29;20478;-75
2023/03/17 12:20:16;;;;;;;2.60;1.70;;;22.30;63.30;;;;;;4888221;29;20574;-75
2023/03/17 12:22:50;;;;;;;1.83;1.63;;;22.30;62.40;;;;;;4889442;29;20946;-74
2023/03/17 12:25:24;;;;;;;2.17;1.70;;;22.40;61.00;;;;;;4891860;29;20953;-74
2023/03/17 12:27:58;;;;;;;1.70;1.60;;;22.30;61.30;;;;;;4887556;29;20491;-73
2023/03/17 12:30:32;;;;;;;1.80;1.70;;;22.10;63.20;;;;;;4893188;29;20481;-73
2023/03/17 12:33:08;;;;;;;2.27;1.63;;;22.20;64.40;;;;;;4891737;29;20538;-74
2023/03/17 12:35:37;;;;;;;1.70;1.60;;;22.40;63.50;;;;;;4892255;29;20884;-74
2023/03/17 12:38:10;;;;;;;2.23;1.70;;;22.60;63.80;;;;;;4887744;29;20486;-73
2023/03/17 12:40:46;;;;;;;1.97;1.77;;;22.90;63.50;;;;;;4888086;29;20994;-74
2023/03/17 12:43:36;;;;;;;2.60;1.90;;;23.10;62.50;;;;;;4894910;29;20470;-75
2023/03/17 12:46:18;;;;;;;3.33;2.20;;;23.30;60.10;;;;;;4894507;29;20969;-75
2023/03/17 12:49:07;;;;;;;2.97;1.90;;;23.20;59.90;;;;;;4890591;29;20496;-75
2023/03/17 12:51:56;;;;;;;2.00;1.80;;;22.90;58.90;;;;;;4893733;29;20819;-76
2023/03/17 12:54:28;;;;;;;2.30;2.10;;;22.80;59.50;;;;;;4889145;29;20934;-75
2023/03/17 12:57:02;;;;;;;2.30;2.10;;;22.80;59.30;;;;;;4894305;29;20458;-73
2023/03/17 12:59:30;;;;;;;1.50;1.40;;;22.70;58.40;;;;;;4892954;29;20505;-78
2023/03/17 13:01:58;;;;;;;1.93;1.73;;;22.50;58.70;;;;;;4896665;29;20469;-77
2023/03/17 13:04:28;;;;;;;3.40;1.80;;;22.40;59.30;;;;;;4889635;29;21065;-77